Pageland, South Carolina
Current Conditions -  °F | °C
As of 10:53 AM on Thursday 30 Oct 2014 (Local Time) from KEQY Reporting Station
Clear Clear  
Wind Chill: 62°   Ceiling: Unl
Heat Index: 62°   Visibility: 10mi
Dew Point: 38°   Wind: 12mph
Humidity: 41%   Direction: 20°NNE
Pressure: 30.06"   Gusts: NA
Location:  34.77°N, 80.39°W
Report Text: KEQY 301453Z AUTO 02010KT 10SM CLR 17/03 A3006 RMK AO2 SLP186 T01670033 50005 $
Loading
Personal Weather Stations






























Interactive Weather Map New forecast layout! Learn more

10-Day Weather Forecast

Advertisements
Track Severe Weather on mobile